Time;durP1;ratioP1;P1;durP2;ratioP2;P2;SDS_P1;SDS_P2;PMS_P1;PMS_P2;Temp;Humidity;BMP_temperature;BMP_pressure;BME280_temperature;BME280_humidity;BME280_pressure;Samples;Min_cycle;Max_cycle;Signal;HPM_P1;HPM_P2
2022/05/24 07:47:23;;;;;;;4.43;1.20;;;24.20;41.80;;;-147.20;100.00;58430.41;5091737;28;20069;-18
2022/05/24 07:49:49;;;;;;;1.90;1.35;;;24.30;42.30;;;-147.20;100.00;58430.41;5076488;28;20052;-20
2022/05/24 07:52:15;;;;;;;4.65;1.73;;;24.40;42.10;;;-147.20;100.00;58430.41;5093858;28;20051;-18
2022/05/24 07:54:41;;;;;;;7.43;1.00;;;24.40;42.00;;;-147.20;100.00;58430.41;5095074;28;20054;-18
2022/05/24 07:57:10;;;;;;;3.38;1.25;;;24.40;42.10;;;-147.20;100.00;58430.41;5095204;28;20051;-18
2022/05/24 07:59:38;;;;;;;5.45;1.33;;;24.30;42.10;;;-147.20;100.00;58430.41;5094495;28;20055;-18
2022/05/24 08:02:06;;;;;;;4.78;1.13;;;24.30;42.20;;;-147.20;100.00;58430.41;5094923;28;20067;-18
2022/05/24 08:04:34;;;;;;;5.05;1.23;;;24.30;42.20;;;-147.20;100.00;58430.41;5094715;28;20056;-19
2022/05/24 08:07:01;;;;;;;3.58;1.10;;;24.30;42.20;;;-147.20;100.00;58430.41;5090951;28;20048;-19
2022/05/24 08:09:26;;;;;;;2.80;1.45;;;24.30;42.20;;;-147.20;100.00;58430.41;5072452;28;20423;-21
2022/05/24 08:11:52;;;;;;;2.00;1.00;;;24.40;42.10;;;-147.20;100.00;58430.41;5074930;28;20040;-19
2022/05/24 08:14:18;;;;;;;3.63;1.38;;;24.40;42.10;;;-147.20;100.00;58430.41;5093841;28;20060;-19
2022/05/24 08:16:44;;;;;;;4.75;1.23;;;24.40;42.10;;;-147.20;100.00;58430.41;5094256;28;20094;-19
2022/05/24 08:19:11;;;;;;;2.90;1.17;;;24.40;42.10;;;-147.20;100.00;58430.41;5075994;28;20044;-20
2022/05/24 08:21:38;;;;;;;3.90;1.45;;;24.40;42.00;;;-147.20;100.00;58430.41;5075994;28;20044;-19
2022/05/24 08:24:05;;;;;;;2.58;1.17;;;24.40;42.10;;;-147.20;100.00;58430.41;5094461;28;20110;-19
2022/05/24 08:26:31;;;;;;;2.60;1.13;;;24.50;42.00;;;-147.20;100.00;58430.41;5094784;28;20090;-19
2022/05/24 08:28:57;;;;;;;3.08;1.10;;;24.40;42.00;;;-147.20;100.00;58430.41;5094289;28;20048;-19
2022/05/24 08:31:22;;;;;;;2.55;1.40;;;24.40;42.00;;;-147.20;100.00;58430.41;5094609;28;20097;-19
2022/05/24 08:33:50;;;;;;;3.22;1.05;;;24.40;42.00;;;-147.20;100.00;58430.41;5094087;28;20047;-19
2022/05/24 08:36:16;;;;;;;1.50;1.10;;;24.40;42.00;;;-147.20;100.00;58430.41;5094148;28;20050;-18
2022/05/24 08:38:42;;;;;;;2.45;1.10;;;24.40;42.00;;;-147.20;100.00;58430.41;5094315;28;20052;-20
2022/05/24 08:41:21;;;;;;;3.42;1.00;;;24.40;42.10;;;-147.20;100.00;58430.41;5094393;28;20048;-19
2022/05/24 08:49:56;;;;;;;2.55;1.25;;;24.40;42.10;;;-147.20;100.00;58430.41;5079080;28;20565;-19
2022/05/24 08:52:25;;;;;;;2.35;1.10;;;24.40;42.00;;;-147.20;100.00;58430.41;5094120;28;20059;-18
2022/05/24 08:54:51;;;;;;;2.38;1.35;;;24.40;42.00;;;-147.20;100.00;58430.41;5093660;28;20055;-19
2022/05/24 08:57:46;;;;;;;1.10;1.00;;;24.40;42.00;;;-147.20;100.00;58430.41;5094036;28;20044;-19
2022/05/24 09:00:19;;;;;;;4.45;1.23;;;24.50;42.00;;;-147.20;100.00;58430.41;5059181;28;20044;-19
2022/05/24 09:02:47;;;;;;;1.73;1.00;;;24.40;42.00;;;-147.20;100.00;58430.41;5093991;28;20073;-19
2022/05/24 09:05:26;;;;;;;2.30;1.30;;;24.40;42.10;;;-147.20;100.00;58430.41;5073925;28;20155;-19
2022/05/24 09:08:22;;;;;;;1.65;1.05;;;24.30;42.10;;;-147.20;100.00;58430.41;5093835;28;20048;-19
2022/05/24 09:11:14;;;;;;;2.72;1.83;;;24.30;42.10;;;-147.20;100.00;58430.41;5093692;28;20044;-19
2022/05/24 09:14:00;;;;;;;1.25;1.10;;;24.40;42.10;;;-147.20;100.00;58430.41;5093518;28;20079;-19
2022/05/24 09:16:59;;;;;;;1.08;0.98;;;24.40;42.00;;;-147.20;100.00;58430.41;5074032;28;20492;-19
2022/05/24 09:19:33;;;;;;;2.90;1.27;;;24.50;42.00;;;-147.20;100.00;58430.41;5058983;28;20506;-20
2022/05/24 09:22:02;;;;;;;1.95;1.10;;;24.50;41.80;;;-147.20;100.00;58430.41;5076124;28;20069;-19
2022/05/24 09:24:45;;;;;;;1.30;1.20;;;24.60;41.80;;;-147.20;100.00;58430.41;5093533;28;20074;-19
2022/05/24 09:27:13;;;;;;;3.05;1.30;;;24.60;41.80;;;-147.20;100.00;58430.41;5093708;28;20089;-19
2022/05/24 09:29:58;;;;;;;1.48;1.05;;;24.60;41.70;;;-147.20;100.00;58430.41;5075718;28;20052;-19
2022/05/24 09:32:43;;;;;;;1.90;1.08;;;24.60;41.70;;;-147.20;100.00;58430.41;5075917;28;20048;-19
2022/05/24 09:35:10;;;;;;;2.47;1.13;;;24.60;41.70;;;-147.20;100.00;58430.41;5075641;28;20051;-19
2022/05/24 09:37:38;;;;;;;3.17;1.23;;;24.70;41.60;;;-147.20;100.00;58430.41;5093719;28;20052;-19
2022/05/24 09:40:18;;;;;;;1.55;1.40;;;24.70;41.60;;;-147.20;100.00;58430.41;5093706;28;20051;-19
2022/05/24 09:42:44;;;;;;;1.75;1.10;;;24.70;41.50;;;-147.20;100.00;58430.41;5074210;28;20055;-19
2022/05/24 09:45:21;;;;;;;1.35;1.00;;;24.70;41.50;;;-147.20;100.00;58430.41;5093602;28;20055;-20
2022/05/24 09:47:59;;;;;;;1.33;1.23;;;24.70;41.50;;;-147.20;100.00;58430.41;5093605;28;20040;-19
2022/05/24 09:50:38;;;;;;;2.80;1.17;;;24.70;41.60;;;-147.20;100.00;58430.41;5093351;28;20048;-19
2022/05/24 09:53:26;;;;;;;2.78;1.10;;;24.60;41.60;;;-147.20;100.00;58430.41;5093221;28;20110;-19
2022/05/24 09:56:25;;;;;;;1.77;1.25;;;24.60;41.70;;;-147.20;100.00;58430.41;5093433;28;20071;-19
2022/05/24 09:59:02;;;;;;;1.40;1.15;;;24.60;41.80;;;-147.20;100.00;58430.41;5093281;28;20052;-19
2022/05/24 10:01:43;;;;;;;2.40;1.10;;;24.50;41.90;;;-147.20;100.00;58430.41;5074555;28;20102;-19
2022/05/24 10:04:25;;;;;;;1.73;1.40;;;24.50;41.90;;;-147.20;100.00;58430.41;5092817;28;20044;-19
2022/05/24 10:07:06;;;;;;;1.10;1.10;;;24.40;42.00;;;-147.20;100.00;58430.41;5092608;28;20503;-19
2022/05/24 10:09:54;;;;;;;1.38;0.80;;;24.40;42.00;;;-147.20;100.00;58430.41;5073148;28;20045;-19
2022/05/24 10:12:52;;;;;;;2.05;1.20;;;24.40;42.10;;;-147.20;100.00;58430.41;5072751;28;20055;-19
2022/05/24 10:15:49;;;;;;;2.78;1.00;;;24.40;42.10;;;-147.20;100.00;58430.41;5072570;28;20481;-19
2022/05/24 10:19:25;;;;;;;3.95;1.30;;;24.30;42.10;;;-147.20;100.00;58430.41;5072727;28;20051;-17
2022/05/24 10:22:04;;;;;;;2.67;1.00;;;24.30;42.20;;;-147.20;100.00;58430.41;5036197;28;20373;-18
2022/05/24 10:25:04;;;;;;;1.42;1.10;;;24.30;42.20;;;-147.20;100.00;58430.41;5074391;28;20063;-19
2022/05/24 10:28:02;;;;;;;2.75;1.10;;;24.30;42.20;;;-147.20;100.00;58430.41;5074472;28;20082;-18
2022/05/24 10:30:49;;;;;;;1.30;1.20;;;24.30;42.30;;;-147.20;100.00;58430.41;5074246;28;20143;-18
2022/05/24 10:39:50;;;;;;;1.63;1.13;;;24.30;42.20;;;-147.20;100.00;58430.41;5092309;28;20083;-19
2022/05/24 10:42:58;;;;;;;2.50;1.48;;;24.30;42.20;;;-147.20;100.00;58430.41;5057668;28;20055;-19
2022/05/24 10:45:49;;;;;;;1.30;1.20;;;24.30;42.30;;;-147.20;100.00;58430.41;5092889;28;20036;-19
2022/05/24 10:48:31;;;;;;;;;;;24.30;42.30;;;-147.20;100.00;58430.41;5077202;28;20048;-18
2022/05/24 10:51:05;;;;;;;;;;;24.30;42.40;;;-147.20;100.00;58430.41;5092599;28;19916;-19
2022/05/24 10:53:50;;;;;;;3.03;1.23;;;24.30;42.40;;;-147.20;100.00;58430.41;5073151;28;19916;-19
2022/05/24 10:56:44;;;;;;;3.47;1.45;;;24.30;42.40;;;-147.20;100.00;58430.41;5072856;28;20477;-18
2022/05/24 10:59:46;;;;;;;1.55;1.30;;;24.30;42.40;;;-147.20;100.00;58430.41;5074090;28;20094;-19
2022/05/24 11:02:28;;;;;;;3.40;1.30;;;24.30;42.40;;;-147.20;100.00;58430.41;5092134;28;20377;-19
2022/05/24 11:05:21;;;;;;;3.05;1.42;;;24.30;42.40;;;-147.20;100.00;58430.41;5091908;28;20048;-19
2022/05/24 11:07:56;;;;;;;1.70;1.20;;;24.30;42.40;;;-147.20;100.00;58430.41;5092080;28;20048;-19
2022/05/24 11:10:28;;;;;;;1.73;1.42;;;24.30;42.50;;;-147.20;100.00;58430.41;5092257;28;20066;-19
2022/05/24 11:12:58;;;;;;;2.75;1.50;;;24.30;42.50;;;-147.20;100.00;58430.41;5073678;28;20063;-19
2022/05/24 11:15:32;;;;;;;1.40;1.30;;;24.30;42.40;;;-147.20;100.00;58430.41;5056875;28;20548;-19
2022/05/24 11:18:16;;;;;;;1.55;1.45;;;24.30;42.50;;;-147.20;100.00;58430.41;5075294;28;20270;-19
2022/05/24 11:20:54;;;;;;;1.42;1.27;;;24.30;42.50;;;-147.20;100.00;58430.41;5095761;28;20188;-19
2022/05/24 11:23:27;;;;;;;1.38;1.27;;;24.30;42.50;;;-147.20;100.00;58430.41;5077267;28;20404;-19
2022/05/24 11:26:12;;;;;;;1.88;1.30;;;24.30;42.60;;;-147.20;100.00;58430.41;5095784;28;20105;-19
2022/05/24 11:28:47;;;;;;;1.23;1.13;;;24.30;42.60;;;-147.20;100.00;58430.41;5076912;28;20139;-18
2022/05/24 11:31:40;;;;;;;2.05;1.50;;;24.20;42.60;;;-147.20;100.00;58430.41;5077295;28;20123;-18
2022/05/24 11:34:23;;;;;;;3.88;1.27;;;24.20;42.60;;;-147.20;100.00;58430.41;5075657;28;20048;-20
2022/05/24 11:37:24;;;;;;;1.67;1.30;;;24.20;42.60;;;-147.20;100.00;58430.41;5095388;28;20044;-19
2022/05/24 11:39:51;;;;;;;2.58;1.50;;;24.20;42.60;;;-147.20;100.00;58430.41;5046132;28;20044;-18
2022/05/24 11:42:34;;;;;;;3.25;1.35;;;24.20;42.60;;;-147.20;100.00;58430.41;5095135;28;20044;-19
2022/05/24 11:45:47;;;;;;;2.00;1.52;;;24.20;42.60;;;-147.20;100.00;58430.41;5095247;28;20048;-19
2022/05/24 11:48:13;;;;;;;1.63;1.30;;;24.20;42.60;;;-147.20;100.00;58430.41;5084845;28;20075;-19
2022/05/24 11:50:46;;;;;;;1.77;1.20;;;24.20;42.60;;;-147.20;100.00;58430.41;5094935;28;20086;-19
2022/05/24 11:53:19;;;;;;;2.35;1.52;;;24.30;42.60;;;-147.20;100.00;58430.41;5094945;28;20083;-20
2022/05/24 11:55:56;;;;;;;1.60;1.17;;;24.30;42.50;;;-147.20;100.00;58430.41;5095028;28;20093;-20
2022/05/24 11:58:39;;;;;;;1.40;1.30;;;24.40;42.50;;;-147.20;100.00;58430.41;5094738;28;20488;-19
2022/05/24 12:01:19;;;;;;;4.43;1.45;;;24.40;42.40;;;-147.20;100.00;58430.41;5076672;28;20407;-18
2022/05/24 12:10:31;;;;;;;1.40;1.30;;;24.40;42.30;;;-147.20;100.00;58430.41;5094758;28;20048;-18
2022/05/24 12:13:03;;;;;;;2.25;1.40;;;24.40;42.30;;;-147.20;100.00;58430.41;5094234;28;20403;-19
2022/05/24 12:15:29;;;;;;;2.75;1.40;;;24.50;42.30;;;-147.20;100.00;58430.41;5094930;28;20434;-18
2022/05/24 12:17:58;;;;;;;1.60;1.30;;;24.50;42.20;;;-147.20;100.00;58430.41;5094487;28;20105;-18
2022/05/24 12:20:49;;;;;;;3.97;1.60;;;24.50;42.10;;;-147.20;100.00;58430.41;5094542;28;20136;-18
2022/05/24 12:23:36;;;;;;;1.85;1.65;;;24.50;42.10;;;-147.20;100.00;58430.41;5094586;28;20063;-18
2022/05/24 12:26:07;;;;;;;3.45;1.48;;;24.50;42.10;;;-147.20;100.00;58430.41;5094385;28;20051;-18
2022/05/24 12:28:37;;;;;;;2.83;1.48;;;24.50;42.20;;;-147.20;100.00;58430.41;5094773;28;20047;-18
2022/05/24 12:31:18;;;;;;;2.65;1.50;;;24.50;42.20;;;-147.20;100.00;58430.41;5093119;28;20036;-18
2022/05/24 12:33:57;;;;;;;1.85;1.60;;;24.50;42.10;;;-147.20;100.00;58430.41;5094030;28;20098;-18
2022/05/24 12:36:28;;;;;;;1.35;1.25;;;24.50;42.10;;;-147.20;100.00;58430.41;5094208;28;20408;-18
2022/05/24 12:39:19;;;;;;;3.70;1.73;;;24.50;42.10;;;-147.20;100.00;58430.41;5094789;28;20472;-18
2022/05/24 12:41:59;;;;;;;;;;;24.50;42.20;;;-147.20;100.00;58430.41;5083073;28;20072;-18
2022/05/24 12:44:48;;;;;;;3.45;1.85;;;24.50;42.20;;;-147.20;100.00;58430.41;5094196;28;19916;-18
2022/05/24 12:47:20;;;;;;;2.08;1.38;;;24.50;42.20;;;-147.20;100.00;58430.41;5076900;28;20044;-18
2022/05/24 12:49:49;;;;;;;2.88;1.60;;;24.50;42.20;;;-147.20;100.00;58430.41;5076167;28;20051;-18
2022/05/24 12:52:27;;;;;;;5.25;1.65;;;24.50;42.20;;;-147.20;100.00;58430.41;5076296;28;20399;-18
2022/05/24 12:55:07;;;;;;;2.35;1.33;;;24.50;42.10;;;-147.20;100.00;58430.41;5075837;28;20048;-18
2022/05/24 12:57:38;;;;;;;1.98;1.42;;;24.60;42.20;;;-147.20;100.00;58430.41;5094556;28;20051;-18
2022/05/24 13:00:14;;;;;;;1.85;1.60;;;24.50;42.10;;;-147.20;100.00;58430.41;5094124;28;20044;-19
2022/05/24 13:02:49;;;;;;;2.33;1.50;;;24.50;42.10;;;-147.20;100.00;58430.41;5094067;28;20047;-19
2022/05/24 13:05:29;;;;;;;1.50;1.40;;;24.50;42.10;;;-147.20;100.00;58430.41;5075829;28;20040;-18
2022/05/24 13:07:59;;;;;;;2.17;1.88;;;24.50;42.20;;;-147.20;100.00;58430.41;5075326;28;20399;-18
2022/05/24 13:10:31;;;;;;;2.95;1.65;;;24.50;42.10;;;-147.20;100.00;58430.41;5093928;28;20098;-17
2022/05/24 13:13:16;;;;;;;2.58;1.48;;;24.50;42.10;;;-147.20;100.00;58430.41;5076015;28;20055;-18
2022/05/24 13:15:45;;;;;;;2.63;1.70;;;24.50;42.20;;;-147.20;100.00;58430.41;5073391;28;20442;-18
2022/05/24 13:18:15;;;;;;;5.28;1.80;;;24.50;42.30;;;-147.20;100.00;58430.41;5075890;28;20048;-18
2022/05/24 13:20:52;;;;;;;2.85;1.80;;;24.40;42.30;;;-147.20;100.00;58430.41;5042195;28;20069;-18
2022/05/24 13:23:35;;;;;;;1.77;1.60;;;24.50;42.40;;;-147.20;100.00;58430.41;5094176;28;20048;-18
2022/05/24 13:26:06;;;;;;;3.80;1.55;;;24.40;42.30;;;-147.20;100.00;58430.41;5093860;28;20040;-17
2022/05/24 13:28:52;;;;;;;2.17;1.67;;;24.40;42.30;;;-147.20;100.00;58430.41;5093299;28;20048;-18
2022/05/24 13:34:17;;;;;;;2.17;1.77;;;24.50;42.20;;;-147.20;100.00;58430.41;5093108;28;20067;-18
2022/05/24 13:36:51;;;;;;;2.72;1.35;;;24.50;42.20;;;-147.20;100.00;58430.41;5093577;28;20480;-18
2022/05/24 13:39:51;;;;;;;2.63;1.73;;;24.50;42.20;;;-147.20;100.00;58430.41;5093627;28;20044;-18
2022/05/24 13:42:17;;;;;;;2.05;1.67;;;24.50;42.20;;;-147.20;100.00;58430.41;5092779;28;20052;-19
2022/05/24 13:45:04;;;;;;;2.67;1.77;;;24.50;42.20;;;-147.20;100.00;58430.41;5093382;28;20396;-18
2022/05/24 13:47:46;;;;;;;2.90;2.10;;;24.50;42.20;;;-147.20;100.00;58430.41;5093775;28;20126;-17
2022/05/24 13:50:29;;;;;;;5.35;1.70;;;24.50;42.10;;;-147.20;100.00;58430.41;5075545;28;20400;-17
2022/05/24 13:53:03;;;;;;;3.40;1.70;;;24.50;42.20;;;-147.20;100.00;58430.41;5092942;28;20094;-18
2022/05/24 13:55:53;;;;;;;1.98;1.60;;;24.50;42.20;;;-147.20;100.00;58430.41;5093173;28;20148;-18
2022/05/24 13:58:46;;;;;;;2.65;1.55;;;24.50;42.20;;;-147.20;100.00;58430.41;5075088;28;20044;-17
2022/05/24 14:01:35;;;;;;;2.33;1.63;;;24.50;42.30;;;-147.20;100.00;58430.41;5093292;28;20055;-18
2022/05/24 14:04:18;;;;;;;8.63;1.77;;;24.50;42.90;;;-147.20;100.00;58430.41;5093055;28;20056;-18
2022/05/24 14:06:55;;;;;;;3.05;1.63;;;24.50;42.30;;;-147.20;100.00;58430.41;5075444;28;20130;-17
2022/05/24 14:09:23;;;;;;;2.47;1.77;;;24.50;42.30;;;-147.20;100.00;58430.41;5093511;28;20529;-18
2022/05/24 14:11:52;;;;;;;2.13;1.80;;;24.50;42.30;;;-147.20;100.00;58430.41;5093029;28;20052;-18
2022/05/24 14:14:20;;;;;;;3.92;1.70;;;24.50;42.30;;;-147.20;100.00;58430.41;5092887;28;20086;-18
2022/05/24 14:16:47;;;;;;;2.35;1.23;;;24.50;42.30;;;-147.20;100.00;58430.41;5092940;28;20507;-18
2022/05/24 14:19:13;;;;;;;2.78;1.65;;;24.50;42.30;;;-147.20;100.00;58430.41;5092921;28;20109;-17
2022/05/24 14:21:40;;;;;;;1.75;1.50;;;24.50;42.30;;;-147.20;100.00;58430.41;5092843;28;20048;-18
2022/05/24 14:24:16;;;;;;;2.05;1.60;;;24.50;42.40;;;-147.20;100.00;58430.41;5092741;28;20051;-17
2022/05/24 14:26:47;;;;;;;3.15;1.88;;;24.50;42.30;;;-147.20;100.00;58430.41;5093328;28;20044;-17
2022/05/24 14:29:14;;;;;;;3.08;1.52;;;24.40;42.30;;;-147.20;100.00;58430.41;5073161;28;20056;-18
2022/05/24 14:31:42;;;;;;;4.18;1.85;;;24.50;42.40;;;-147.20;100.00;58430.41;5092961;28;20044;-18
2022/05/24 14:34:15;;;;;;;2.45;1.83;;;24.40;42.40;;;-147.20;100.00;58430.41;5074918;28;20123;-18
2022/05/24 14:36:43;;;;;;;4.35;2.10;;;24.40;42.40;;;-147.20;100.00;58430.41;5092939;28;20079;-18
2022/05/24 14:39:14;;;;;;;3.25;1.90;;;24.40;42.30;;;-147.20;100.00;58430.41;5092831;28;20211;-17
2022/05/24 14:41:42;;;;;;;2.65;1.88;;;24.40;42.40;;;-147.20;100.00;58430.41;5093147;28;20082;-18
2022/05/24 14:44:15;;;;;;;2.63;1.90;;;24.40;42.40;;;-147.20;100.00;58430.41;5092729;28;20048;-18
2022/05/24 14:46:41;;;;;;;2.28;1.90;;;24.40;42.50;;;-147.20;100.00;58430.41;5074591;28;20142;-18
2022/05/24 14:49:11;;;;;;;2.85;2.13;;;24.40;42.50;;;-147.20;100.00;58430.41;5092785;28;20048;-18
2022/05/24 14:52:00;;;;;;;4.57;1.50;;;24.40;42.50;;;-147.20;100.00;58430.41;5093126;28;20053;-18
2022/05/24 14:54:27;;;;;;;2.85;1.98;;;24.40;42.60;;;-147.20;100.00;58430.41;5071797;28;20097;-19
2022/05/24 14:56:53;;;;;;;3.67;1.63;;;24.30;42.60;;;-147.20;100.00;58430.41;5093087;28;20056;-19
2022/05/24 14:59:22;;;;;;;2.22;1.42;;;24.30;42.60;;;-147.20;100.00;58430.41;5092450;28;20048;-19
2022/05/24 15:01:48;;;;;;;2.65;2.00;;;24.30;42.70;;;-147.20;100.00;58430.41;5074540;28;20536;-19
2022/05/24 15:04:15;;;;;;;4.40;1.92;;;24.30;42.70;;;-147.20;100.00;58430.41;5092440;28;20044;-19
2022/05/24 15:06:45;;;;;;;3.80;1.80;;;24.20;42.70;;;-147.20;100.00;58430.41;5092424;28;20048;-19
2022/05/24 15:17:33;;;;;;;2.60;1.77;;;24.20;42.80;;;-147.20;100.00;58430.41;5092696;28;20506;-19
2022/05/24 15:20:04;;;;;;;2.78;1.85;;;24.20;42.80;;;-147.20;100.00;58430.41;5074313;28;20044;-20
2022/05/24 15:22:33;;;;;;;3.63;1.77;;;24.30;42.80;;;-147.20;100.00;58430.41;5092515;28;20412;-19
2022/05/24 15:25:00;;;;;;;2.13;1.60;;;24.30;42.70;;;-147.20;100.00;58430.41;5074236;28;20044;-19
2022/05/24 15:27:26;;;;;;;2.28;1.77;;;24.30;42.70;;;-147.20;100.00;58430.41;5074157;28;20048;-19
2022/05/24 15:29:52;;;;;;;2.65;1.88;;;24.30;42.60;;;-147.20;100.00;58430.41;5091002;28;20048;-19
2022/05/24 15:32:17;;;;;;;2.75;1.67;;;24.30;42.70;;;-147.20;100.00;58430.41;5092594;28;20368;-19
2022/05/24 15:34:48;;;;;;;3.47;1.45;;;24.30;42.70;;;-147.20;100.00;58430.41;5092284;28;20040;-19
2022/05/24 15:37:14;;;;;;;2.00;1.65;;;24.30;42.70;;;-147.20;100.00;58430.41;5092155;28;20055;-19
2022/05/24 15:39:40;;;;;;;3.45;1.80;;;24.30;42.70;;;-147.20;100.00;58430.41;5091861;28;20058;-19
2022/05/24 15:42:08;;;;;;;3.88;1.88;;;24.30;42.80;;;-147.20;100.00;58430.41;5092411;28;20058;-19
2022/05/24 15:44:35;;;;;;;2.40;1.60;;;24.30;42.80;;;-147.20;100.00;58430.41;5092429;28;20055;-19
2022/05/24 15:47:03;;;;;;;7.18;1.75;;;24.30;42.80;;;-147.20;100.00;58430.41;5092072;28;20153;-19
2022/05/24 15:49:29;;;;;;;4.65;1.70;;;24.30;42.70;;;-147.20;100.00;58430.41;5091930;28;20052;-19
2022/05/24 15:51:56;;;;;;;2.95;1.73;;;24.20;42.70;;;-147.20;100.00;58430.41;5092060;28;20480;-19
2022/05/24 15:54:22;;;;;;;3.30;1.90;;;24.30;42.80;;;-147.20;100.00;58430.41;5091939;28;20468;-19
2022/05/24 15:56:49;;;;;;;5.60;1.95;;;24.20;42.70;;;-147.20;100.00;58430.41;5092462;28;20072;-19
2022/05/24 15:59:17;;;;;;;2.60;1.83;;;24.20;42.70;;;-147.20;100.00;58430.41;5073636;28;20055;-19
2022/05/24 16:01:43;;;;;;;2.60;1.70;;;24.20;42.80;;;-147.20;100.00;58430.41;5092398;28;20376;-19
2022/05/24 16:04:10;;;;;;;2.05;1.85;;;24.20;42.80;;;-147.20;100.00;58430.41;5092061;28;20048;-19
2022/05/24 16:12:09;;;;;;;2.28;1.75;;;24.20;42.70;;;-147.20;100.00;58430.41;5095530;28;20040;-20
2022/05/24 16:14:40;;;;;;;1.70;1.52;;;24.20;42.70;;;-147.20;100.00;58430.41;5095110;28;20408;-19
2022/05/24 16:17:11;;;;;;;2.67;1.67;;;24.20;42.70;;;-147.20;100.00;58430.41;5077279;28;20447;-19
2022/05/24 16:19:39;;;;;;;1.88;1.67;;;24.20;42.70;;;-147.20;100.00;58430.41;5077095;28;20044;-19
2022/05/24 16:22:05;;;;;;;2.90;1.77;;;24.20;42.70;;;-147.20;100.00;58430.41;5095060;28;20086;-19
2022/05/24 16:24:32;;;;;;;1.70;1.60;;;24.20;42.70;;;-147.20;100.00;58430.41;5093982;28;20190;-19
2022/05/24 16:26:58;;;;;;;3.28;1.65;;;24.20;42.70;;;-147.20;100.00;58430.41;5095180;28;20078;-20
2022/05/24 16:29:23;;;;;;;1.95;1.65;;;24.20;42.70;;;-147.20;100.00;58430.41;5094772;28;20093;-19
2022/05/24 16:31:49;;;;;;;2.63;1.70;;;24.20;42.70;;;-147.20;100.00;58430.41;5095255;28;20050;-19
2022/05/24 16:34:15;;;;;;;2.65;1.88;;;24.20;42.70;;;-147.20;100.00;58430.41;5094831;28;20051;-19
2022/05/24 16:36:42;;;;;;;2.03;1.55;;;24.20;42.70;;;-147.20;100.00;58430.41;5095190;28;20553;-19
2022/05/24 16:39:11;;;;;;;2.47;1.80;;;24.20;42.70;;;-147.20;100.00;58430.41;5094812;28;20043;-20
2022/05/24 16:41:37;;;;;;;1.80;1.63;;;24.20;42.70;;;-147.20;100.00;58430.41;5094893;28;20078;-19
2022/05/24 16:44:04;;;;;;;3.35;2.15;;;24.20;42.80;;;-147.20;100.00;58430.41;5094334;28;20495;-19
2022/05/24 16:46:31;;;;;;;2.95;1.65;;;24.20;42.80;;;-147.20;100.00;58430.41;5094722;28;20048;-19
2022/05/24 16:48:58;;;;;;;3.15;2.22;;;24.20;43.30;;;-147.20;100.00;58430.41;5094208;28;20139;-19
2022/05/24 16:51:30;;;;;;;2.03;1.77;;;24.20;42.70;;;-147.20;100.00;58430.41;5094317;28;20058;-19
2022/05/24 16:58:42;;;;;;;2.97;1.95;;;24.20;42.70;;;-147.20;100.00;58430.41;5094495;28;20131;-19
2022/05/24 16:59:32;;;;;;;3.30;1.40;;;24.20;42.70;;;-147.20;100.00;58430.41;5093909;28;20094;-19
2022/05/24 17:01:57;;;;;;;2.45;1.85;;;24.20;42.80;;;-147.20;100.00;58430.41;5094746;28;20472;-19
2022/05/24 17:04:23;;;;;;;2.70;1.67;;;24.20;42.80;;;-147.20;100.00;58430.41;5094462;28;20445;-19
2022/05/24 17:06:49;;;;;;;2.38;1.65;;;24.20;42.80;;;-147.20;100.00;58430.41;5094712;28;20048;-19
2022/05/24 17:09:15;;;;;;;1.90;1.70;;;24.10;42.80;;;-147.20;100.00;58430.41;5094408;28;20056;-19
2022/05/24 17:11:42;;;;;;;1.67;1.58;;;24.10;42.80;;;-147.20;100.00;58430.41;5094267;28;20067;-20
2022/05/24 17:14:11;;;;;;;4.75;1.90;;;24.10;42.90;;;-147.20;100.00;58430.41;5094189;28;20055;-19
2022/05/24 17:16:37;;;;;;;3.05;1.73;;;24.10;42.90;;;-147.20;100.00;58430.41;5093764;28;20044;-19
2022/05/24 17:19:03;;;;;;;2.08;1.73;;;24.10;42.90;;;-147.20;100.00;58430.41;5094272;28;20059;-19
2022/05/24 17:21:29;;;;;;;2.80;1.73;;;24.10;43.00;;;-147.20;100.00;58430.41;5094442;28;20048;-19
2022/05/24 17:23:55;;;;;;;2.30;1.80;;;24.10;42.90;;;-147.20;100.00;58430.41;5093852;28;20052;-19
2022/05/24 17:26:20;;;;;;;2.40;1.60;;;24.10;43.00;;;-147.20;100.00;58430.41;5093645;28;20040;-19
2022/05/24 17:28:46;;;;;;;2.65;1.63;;;24.10;43.00;;;-147.20;100.00;58430.41;5093712;28;20044;-19
2022/05/24 17:31:12;;;;;;;2.95;1.85;;;24.10;43.00;;;-147.20;100.00;58430.41;5093912;28;20044;-20
2022/05/24 17:33:38;;;;;;;3.30;1.77;;;24.10;43.00;;;-147.20;100.00;58430.41;5094182;28;20044;-19
2022/05/24 17:36:06;;;;;;;2.45;1.63;;;24.10;43.00;;;-147.20;100.00;58430.41;5093878;28;20047;-19
2022/05/24 17:38:33;;;;;;;3.53;1.88;;;24.00;43.00;;;-147.20;100.00;58430.41;5093471;28;20052;-20
2022/05/24 17:41:04;;;;;;;3.17;1.70;;;24.00;43.00;;;-147.20;100.00;58430.41;5094151;28;20175;-19
2022/05/24 17:43:31;;;;;;;;;;;24.00;43.00;;;-147.20;100.00;58430.41;5094904;28;20040;-19
2022/05/24 17:45:57;;;;;;;2.50;1.70;;;24.00;43.00;;;-147.20;100.00;58430.41;5094003;28;20057;-19
2022/05/24 17:48:23;;;;;;;3.55;1.70;;;24.00;43.00;;;-147.20;100.00;58430.41;5074215;28;20056;-19
2022/05/24 17:50:49;;;;;;;3.30;1.55;;;24.00;43.00;;;-147.20;100.00;58430.41;5071624;28;20076;-20
2022/05/24 17:53:19;;;;;;;1.75;1.65;;;24.00;43.00;;;-147.20;100.00;58430.41;5093613;28;20389;-19
2022/05/24 17:55:48;;;;;;;2.05;1.85;;;24.00;43.00;;;-147.20;100.00;58430.41;5093559;28;20104;-17
2022/05/24 17:58:14;;;;;;;2.25;1.55;;;24.00;43.00;;;-147.20;100.00;58430.41;5093574;28;20132;-19
2022/05/24 18:00:43;;;;;;;1.67;1.55;;;24.00;43.00;;;-147.20;100.00;58430.41;5093444;28;20096;-19
2022/05/24 18:03:11;;;;;;;4.30;1.75;;;24.10;43.10;;;-147.20;100.00;58430.41;5093507;28;20039;-19
2022/05/24 18:05:38;;;;;;;2.45;1.60;;;24.00;43.10;;;-147.20;100.00;58430.41;5093335;28;20076;-19
2022/05/24 18:08:06;;;;;;;2.30;1.60;;;24.00;43.00;;;-147.20;100.00;58430.41;5093464;28;20400;-19
2022/05/24 18:10:33;;;;;;;1.50;1.40;;;24.00;43.00;;;-147.20;100.00;58430.41;5093323;28;20063;-19
2022/05/24 18:12:59;;;;;;;1.70;1.58;;;24.00;43.00;;;-147.20;100.00;58430.41;5093389;28;20119;-20
2022/05/24 18:15:25;;;;;;;1.75;1.50;;;24.00;43.10;;;-147.20;100.00;58430.41;5093226;28;20052;-19
2022/05/24 18:17:51;;;;;;;2.60;1.67;;;24.00;43.10;;;-147.20;100.00;58430.41;5093249;28;20130;-19
2022/05/24 18:20:17;;;;;;;3.53;1.70;;;24.00;43.00;;;-147.20;100.00;58430.41;5093202;28;20056;-19
2022/05/24 18:22:58;;;;;;;2.13;1.92;;;24.00;43.10;;;-147.20;100.00;58430.41;5093234;28;20521;-19
2022/05/24 18:34:08;;;;;;;1.60;1.50;;;24.00;43.60;;;-147.20;100.00;58430.41;5063557;28;20056;-19
2022/05/24 18:36:38;;;;;;;2.47;1.55;;;23.90;43.00;;;-147.20;100.00;58430.41;5074390;28;20126;-19
2022/05/24 18:39:04;;;;;;;2.03;1.50;;;23.90;43.00;;;-147.20;100.00;58430.41;5092759;28;20063;-19
2022/05/24 18:41:30;;;;;;;2.08;1.67;;;23.90;43.00;;;-147.20;100.00;58430.41;5092731;28;20060;-19
2022/05/24 18:43:56;;;;;;;1.63;1.50;;;23.90;43.10;;;-147.20;100.00;58430.41;5092634;28;20085;-18
2022/05/24 18:46:22;;;;;;;3.35;1.98;;;23.90;43.10;;;-147.20;100.00;58430.41;5092903;28;20044;-18
2022/05/24 18:48:48;;;;;;;1.63;1.50;;;23.90;43.10;;;-147.20;100.00;58430.41;5092513;28;20050;-18
2022/05/24 18:51:14;;;;;;;4.20;1.52;;;23.90;43.10;;;-147.20;100.00;58430.41;5092300;28;20044;-19
2022/05/24 18:53:39;;;;;;;2.25;1.50;;;23.90;43.10;;;-147.20;100.00;58430.41;5092667;28;20047;-18
2022/05/24 18:56:06;;;;;;;2.63;1.80;;;23.90;43.10;;;-147.20;100.00;58430.41;5074473;28;20131;-18
2022/05/24 18:58:32;;;;;;;2.28;1.45;;;23.90;43.10;;;-147.20;100.00;58430.41;5092241;28;20055;-17
2022/05/24 19:00:57;;;;;;;2.78;1.60;;;23.90;43.20;;;-147.20;100.00;58430.41;5093047;28;20044;-18